Time;durP1;ratioP1;P1;durP2;ratioP2;P2;SDS_P1;SDS_P2;PMS_P1;PMS_P2;Temp;Humidity;BMP_temperature;BMP_pressure;BME280_temperature;BME280_humidity;BME280_pressure;Samples;Min_cycle;Max_cycle;Signal;HPM_P1;HPM_P2
2023/11/27 00:00:26;;;;;;;11.45;7.80;;;3.30;99.90;;;;;;4708457;30;20053;-55
2023/11/27 00:03:06;;;;;;;10.00;7.10;;;3.30;99.90;;;;;;4712045;30;20416;-50
2023/11/27 00:05:34;;;;;;;14.07;8.10;;;3.30;99.90;;;;;;4709090;30;20049;-53
2023/11/27 00:08:01;;;;;;;11.88;7.18;;;3.30;99.90;;;;;;4694717;30;20061;-46
2023/11/27 00:10:28;;;;;;;12.20;7.88;;;3.30;99.90;;;;;;4708638;30;20531;-53
2023/11/27 00:12:58;;;;;;;12.15;7.57;;;3.30;99.90;;;;;;4709186;30;20067;-49
2023/11/27 00:15:27;;;;;;;13.18;8.02;;;3.30;99.90;;;;;;4710962;30;20057;-46
2023/11/27 00:17:54;;;;;;;16.25;7.53;;;3.30;99.90;;;;;;4709184;30;20084;-53
2023/11/27 00:20:22;;;;;;;11.77;7.18;;;3.30;99.90;;;;;;4709828;30;20528;-50
2023/11/27 00:22:49;;;;;;;16.55;8.30;;;3.30;99.90;;;;;;4710442;30;20443;-47
2023/11/27 00:25:16;;;;;;;13.50;7.82;;;3.30;99.90;;;;;;4709464;30;20136;-53
2023/11/27 00:27:43;;;;;;;13.55;9.23;;;3.30;99.90;;;;;;4711910;30;20045;-46
2023/11/27 00:30:11;;;;;;;15.68;8.75;;;3.30;99.90;;;;;;4694396;30;20124;-55
2023/11/27 00:32:38;;;;;;;12.90;8.18;;;3.20;99.90;;;;;;4696193;30;20053;-50
2023/11/27 00:35:06;;;;;;;12.65;8.23;;;3.30;99.90;;;;;;4708927;30;20528;-48
2023/11/27 00:37:33;;;;;;;15.77;8.60;;;3.30;99.90;;;;;;4709869;30;20065;-51
2023/11/27 00:40:00;;;;;;;14.75;8.95;;;3.30;99.90;;;;;;4708010;30;20163;-45
2023/11/27 00:42:27;;;;;;;16.85;9.23;;;3.30;99.90;;;;;;4708651;30;20139;-51
2023/11/27 00:44:54;;;;;;;15.63;8.35;;;3.30;99.90;;;;;;4708033;30;20170;-53
2023/11/27 00:47:21;;;;;;;14.73;8.52;;;3.30;99.90;;;;;;4708105;30;20116;-48
2023/11/27 00:49:48;;;;;;;15.13;8.40;;;3.30;99.90;;;;;;4737351;24;20052;-44
2023/11/27 00:52:15;;;;;;;14.10;7.68;;;3.30;99.90;;;;;;4728085;30;20506;-46
2023/11/27 00:54:43;;;;;;;18.63;8.70;;;3.30;99.90;;;;;;4712628;30;20237;-45
2023/11/27 00:57:10;;;;;;;16.15;9.30;;;3.30;99.90;;;;;;4735294;30;20443;-44
2023/11/27 00:59:40;;;;;;;18.17;8.90;;;3.30;99.90;;;;;;4725879;30;20071;-44
2023/11/27 01:02:08;;;;;;;18.83;8.70;;;3.30;99.90;;;;;;4726045;30;20059;-42
2023/11/27 01:04:39;;;;;;;15.00;8.85;;;3.30;99.90;;;;;;4723954;30;20072;-46
2023/11/27 01:07:06;;;;;;;15.93;8.80;;;3.20;99.90;;;;;;4727048;30;20164;-45
2023/11/27 01:09:37;;;;;;;17.65;9.10;;;3.30;99.90;;;;;;4728358;30;20053;-45
2023/11/27 01:12:04;;;;;;;16.80;9.00;;;3.30;99.90;;;;;;4725035;30;20061;-46
2023/11/27 01:14:31;;;;;;;17.30;9.10;;;3.30;99.90;;;;;;4729492;30;20051;-50
2023/11/27 01:16:59;;;;;;;15.15;8.85;;;3.30;99.90;;;;;;4723193;30;20167;-42
2023/11/27 01:19:26;;;;;;;17.58;8.80;;;3.30;99.90;;;;;;4728925;30;20115;-44
2023/11/27 01:21:53;;;;;;;17.88;9.35;;;3.30;99.90;;;;;;4726987;30;20057;-44
2023/11/27 01:24:22;;;;;;;14.80;8.80;;;3.30;99.90;;;;;;4729837;30;20061;-45
2023/11/27 01:26:51;;;;;;;16.05;8.52;;;3.30;99.90;;;;;;4728339;30;20052;-47
2023/11/27 01:29:21;;;;;;;13.57;7.97;;;3.40;99.90;;;;;;4727715;30;20052;-48
2023/11/27 01:31:49;;;;;;;16.70;8.68;;;3.40;99.90;;;;;;4729558;30;20048;-44
2023/11/27 01:34:18;;;;;;;18.65;9.10;;;3.30;99.90;;;;;;4729652;30;20072;-46
2023/11/27 01:36:45;;;;;;;17.08;8.68;;;3.30;99.90;;;;;;4728963;30;20083;-46
2023/11/27 01:39:14;;;;;;;16.70;8.77;;;3.30;99.90;;;;;;4728606;30;20065;-45
2023/11/27 01:41:41;;;;;;;17.20;7.63;;;3.30;99.90;;;;;;4728764;30;20064;-43
2023/11/27 01:44:08;;;;;;;15.80;8.80;;;3.30;99.90;;;;;;4711645;30;20052;-50
2023/11/27 01:46:44;;;;;;;17.55;8.60;;;3.30;99.90;;;;;;4729297;30;20083;-46
2023/11/27 01:49:11;;;;;;;12.73;7.80;;;3.30;99.90;;;;;;4730534;30;20148;-47
2023/11/27 01:51:41;;;;;;;14.68;7.90;;;3.40;99.90;;;;;;4713385;30;20053;-47
2023/11/27 01:54:10;;;;;;;15.68;8.20;;;3.30;99.90;;;;;;4730382;30;20067;-49
2023/11/27 01:56:40;;;;;;;16.52;7.88;;;3.30;99.90;;;;;;4730357;30;20490;-50
2023/11/27 01:59:07;;;;;;;15.98;7.35;;;3.20;99.90;;;;;;4714563;30;20052;-47
2023/11/27 02:01:34;;;;;;;14.95;7.60;;;3.20;99.90;;;;;;4711927;30;20052;-40
2023/11/27 02:04:02;;;;;;;15.50;7.40;;;3.20;99.90;;;;;;4727958;30;20135;-44
2023/11/27 02:06:29;;;;;;;16.27;6.90;;;3.20;99.90;;;;;;4730653;30;20083;-47
2023/11/27 02:08:57;;;;;;;13.02;7.28;;;3.20;99.90;;;;;;4730647;30;20048;-46
2023/11/27 02:11:28;;;;;;;16.85;6.95;;;3.20;99.90;;;;;;4731971;30;20136;-48
2023/11/27 02:13:55;;;;;;;15.82;7.32;;;3.20;99.90;;;;;;4715466;30;20357;-46
2023/11/27 02:16:22;;;;;;;12.75;6.30;;;3.20;99.90;;;;;;4732792;30;20071;-49
2023/11/27 02:18:50;;;;;;;16.85;6.45;;;3.20;99.90;;;;;;4731277;30;20053;-46
2023/11/27 02:21:18;;;;;;;11.52;6.43;;;3.20;99.90;;;;;;4732477;30;20051;-51
2023/11/27 02:23:49;;;;;;;12.63;6.97;;;3.20;99.90;;;;;;4717275;30;20153;-49
2023/11/27 02:26:16;;;;;;;14.38;6.30;;;3.10;99.90;;;;;;4716714;30;20044;-49
2023/11/27 02:28:43;;;;;;;12.20;6.90;;;3.10;99.90;;;;;;4718225;30;20049;-47
2023/11/27 02:31:11;;;;;;;17.63;8.07;;;3.10;99.90;;;;;;4730570;30;20048;-51
2023/11/27 02:33:39;;;;;;;13.52;6.50;;;3.10;99.90;;;;;;4731996;30;20052;-45
2023/11/27 02:36:06;;;;;;;13.80;6.47;;;3.20;99.90;;;;;;4731564;30;20140;-46
2023/11/27 02:38:34;;;;;;;13.80;7.05;;;3.10;99.90;;;;;;4727583;30;20056;-44
2023/11/27 02:41:02;;;;;;;16.60;7.72;;;3.10;99.90;;;;;;4728281;30;20060;-43
2023/11/27 02:43:30;;;;;;;14.18;6.80;;;3.10;99.90;;;;;;4712135;30;20148;-48
2023/11/27 02:45:57;;;;;;;12.45;7.22;;;3.00;99.90;;;;;;4724470;30;20067;-45
2023/11/27 02:48:24;;;;;;;14.13;6.85;;;3.00;99.90;;;;;;4727348;30;20628;-46
2023/11/27 02:50:51;;;;;;;16.52;7.55;;;3.00;99.90;;;;;;4726362;30;20421;-47
2023/11/27 02:53:18;;;;;;;13.43;6.78;;;3.00;99.90;;;;;;4726897;30;20065;-48
2023/11/27 02:55:45;;;;;;;15.07;6.90;;;3.00;99.90;;;;;;4728361;30;20136;-43
2023/11/27 02:58:12;;;;;;;13.45;6.65;;;3.00;99.90;;;;;;4729510;30;20134;-45
2023/11/27 03:00:39;;;;;;;15.77;6.47;;;3.00;99.90;;;;;;4724834;30;20423;-48
2023/11/27 03:03:06;;;;;;;14.80;6.40;;;3.00;99.90;;;;;;4712855;30;20067;-46
2023/11/27 03:05:33;;;;;;;13.20;6.32;;;3.10;99.90;;;;;;4727854;30;20087;-46
2023/11/27 03:08:01;;;;;;;11.90;6.18;;;3.10;99.90;;;;;;4729086;30;20503;-42
2023/11/27 03:10:28;;;;;;;14.30;6.15;;;3.00;99.90;;;;;;4729883;30;20048;-44
2023/11/27 03:12:55;;;;;;;11.18;5.90;;;3.10;99.90;;;;;;4726999;30;20060;-47
2023/11/27 03:15:22;;;;;;;13.73;7.10;;;3.00;99.90;;;;;;4728671;30;20052;-41
2023/11/27 03:17:49;;;;;;;12.95;6.95;;;3.00;99.90;;;;;;4728473;30;20096;-48
2023/11/27 03:20:17;;;;;;;12.77;6.55;;;3.00;99.90;;;;;;4727648;30;20384;-49
2023/11/27 03:22:44;;;;;;;12.63;6.28;;;3.00;99.90;;;;;;4727858;30;20458;-45
2023/11/27 03:25:11;;;;;;;14.25;6.68;;;3.00;99.90;;;;;;4725501;30;20068;-48
2023/11/27 03:27:39;;;;;;;16.38;5.78;;;3.00;99.90;;;;;;4730445;30;20048;-42
2023/11/27 03:30:06;;;;;;;13.23;6.32;;;3.00;99.90;;;;;;4729892;30;20056;-42
2023/11/27 03:32:33;;;;;;;16.58;6.40;;;3.00;99.90;;;;;;4733092;30;20055;-45
2023/11/27 03:35:01;;;;;;;13.32;6.18;;;3.00;99.90;;;;;;4711280;30;20063;-45
2023/11/27 03:37:29;;;;;;;14.82;6.18;;;3.00;99.90;;;;;;4729541;30;20181;-44
2023/11/27 03:39:56;;;;;;;14.38;6.97;;;3.00;99.90;;;;;;4727265;30;22365;-47
2023/11/27 03:42:25;;;;;;;13.50;7.10;;;3.00;99.90;;;;;;4728530;30;20132;-43
2023/11/27 03:44:52;;;;;;;13.52;6.40;;;3.00;99.90;;;;;;4727217;30;20056;-48
2023/11/27 03:47:21;;;;;;;14.90;7.35;;;3.00;99.90;;;;;;4727682;30;20057;-49
2023/11/27 03:49:48;;;;;;;16.08;6.88;;;3.00;99.90;;;;;;4730804;30;20161;-48
2023/11/27 03:52:15;;;;;;;14.30;6.22;;;3.00;99.90;;;;;;4730640;30;20055;-45
2023/11/27 03:54:42;;;;;;;10.98;6.30;;;3.00;99.90;;;;;;4730673;30;20404;-48
2023/11/27 03:57:09;;;;;;;14.48;6.53;;;2.90;99.90;;;;;;4729033;30;20132;-41
2023/11/27 03:59:36;;;;;;;14.23;6.53;;;2.90;99.90;;;;;;4726857;30;20503;-48
2023/11/27 04:02:03;;;;;;;14.85;6.93;;;3.00;99.90;;;;;;4710926;30;20348;-46
2023/11/27 04:04:31;;;;;;;11.90;6.72;;;3.00;99.90;;;;;;4729587;30;20477;-48
2023/11/27 04:07:00;;;;;;;12.82;6.05;;;3.00;99.90;;;;;;4727190;30;20049;-42
2023/11/27 04:09:27;;;;;;;13.90;7.18;;;3.00;99.90;;;;;;4713210;30;20056;-45
2023/11/27 04:11:54;;;;;;;17.15;6.40;;;3.00;99.90;;;;;;4725094;30;20057;-45
2023/11/27 04:14:21;;;;;;;14.95;6.70;;;3.00;99.90;;;;;;4728681;30;20053;-44
2023/11/27 04:16:48;;;;;;;15.82;7.35;;;3.00;99.90;;;;;;4727041;30;20056;-44
2023/11/27 04:19:15;;;;;;;19.88;7.07;;;3.00;99.90;;;;;;4712396;30;20284;-43
2023/11/27 04:21:43;;;;;;;14.13;5.95;;;3.00;99.90;;;;;;4726470;30;20417;-44
2023/11/27 04:24:09;;;;;;;14.70;5.88;;;3.00;99.90;;;;;;4730305;30;20060;-46
2023/11/27 04:26:36;;;;;;;13.88;6.63;;;3.00;99.90;;;;;;4724595;30;20118;-48
2023/11/27 04:29:05;;;;;;;11.18;6.32;;;3.00;99.90;;;;;;4728413;30;20052;-44
2023/11/27 04:31:33;;;;;;;11.70;6.07;;;3.00;99.90;;;;;;4727523;30;20095;-46
2023/11/27 04:34:00;;;;;;;13.27;6.55;;;3.00;99.90;;;;;;4728987;30;20135;-47
2023/11/27 04:36:27;;;;;;;9.88;6.38;;;3.10;99.90;;;;;;4727103;30;20052;-52
2023/11/27 04:38:54;;;;;;;15.85;6.35;;;3.10;99.90;;;;;;4725826;30;20095;-45
2023/11/27 04:41:21;;;;;;;14.05;6.68;;;3.10;99.90;;;;;;4727837;30;20053;-48
2023/11/27 04:43:48;;;;;;;10.95;6.03;;;3.00;99.90;;;;;;4724958;30;20111;-45
2023/11/27 04:46:16;;;;;;;15.73;6.88;;;3.10;99.90;;;;;;4725724;30;20060;-45
2023/11/27 04:48:44;;;;;;;17.65;6.30;;;3.10;99.90;;;;;;4726395;30;20404;-48
2023/11/27 04:51:11;;;;;;;11.50;6.53;;;3.10;99.90;;;;;;4725035;30;20045;-50
2023/11/27 04:53:38;;;;;;;13.63;5.95;;;3.00;99.90;;;;;;4728526;30;20438;-48
2023/11/27 04:56:06;;;;;;;15.10;6.60;;;3.00;99.90;;;;;;4725728;30;20102;-41
2023/11/27 04:58:33;;;;;;;13.00;6.05;;;3.10;99.90;;;;;;4726403;30;20060;-49
2023/11/27 05:01:02;;;;;;;14.88;7.10;;;3.10;99.90;;;;;;4725692;30;20057;-42
2023/11/27 05:03:29;;;;;;;14.63;6.10;;;3.10;99.90;;;;;;4727537;30;20052;-41
2023/11/27 05:05:59;;;;;;;17.45;6.72;;;3.10;99.90;;;;;;4727357;30;20053;-48
2023/11/27 05:08:26;;;;;;;12.05;6.20;;;3.10;99.90;;;;;;4724329;30;20057;-43
2023/11/27 05:10:53;;;;;;;12.02;5.45;;;3.00;99.90;;;;;;4723887;30;20059;-50
2023/11/27 05:13:21;;;;;;;13.43;5.78;;;3.10;99.90;;;;;;4722553;30;20194;-46
2023/11/27 05:15:48;;;;;;;12.95;5.88;;;3.10;99.90;;;;;;4724987;30;20738;-48
2023/11/27 05:18:16;;;;;;;10.98;6.63;;;3.10;99.90;;;;;;4728154;30;20056;-44
2023/11/27 05:20:43;;;;;;;14.75;6.18;;;3.00;99.90;;;;;;4724883;30;20523;-50
2023/11/27 05:23:09;;;;;;;13.40;6.30;;;3.00;99.90;;;;;;4727196;30;20068;-45
2023/11/27 05:25:37;;;;;;;13.50;5.68;;;3.00;99.90;;;;;;4722106;30;20082;-49
2023/11/27 05:28:04;;;;;;;11.15;6.20;;;3.00;99.90;;;;;;4726317;30;20778;-47
2023/11/27 05:30:31;;;;;;;14.85;6.70;;;3.00;99.90;;;;;;4726892;30;20114;-49
2023/11/27 05:32:58;;;;;;;10.50;5.95;;;3.00;99.90;;;;;;4725362;30;20508;-42
2023/11/27 05:35:26;;;;;;;16.85;6.20;;;3.00;99.90;;;;;;4727737;30;20045;-45
2023/11/27 05:37:53;;;;;;;13.57;6.50;;;3.00;99.90;;;;;;4723714;30;20061;-45
2023/11/27 05:40:22;;;;;;;9.90;5.72;;;3.00;99.90;;;;;;4725173;30;20138;-48
2023/11/27 05:42:49;;;;;;;11.20;5.88;;;3.00;99.90;;;;;;4726154;30;20148;-40
2023/11/27 05:45:16;;;;;;;11.48;5.55;;;3.00;99.90;;;;;;4726311;30;20164;-50
2023/11/27 05:47:43;;;;;;;10.80;6.50;;;3.00;99.90;;;;;;4722828;30;20590;-45
2023/11/27 05:50:12;;;;;;;13.68;6.32;;;3.00;99.90;;;;;;4727004;30;20197;-46
2023/11/27 05:52:39;;;;;;;16.33;6.55;;;3.00;99.90;;;;;;4726183;30;20080;-50
2023/11/27 05:55:07;;;;;;;12.98;6.35;;;3.10;99.90;;;;;;4729320;30;20053;-46
2023/11/27 05:57:34;;;;;;;12.65;6.38;;;3.00;99.90;;;;;;4725593;30;20052;-45
2023/11/27 06:00:03;;;;;;;14.45;6.40;;;3.10;99.90;;;;;;4723283;30;20092;-44
2023/11/27 06:02:38;;;;;;;16.67;7.03;;;3.10;99.90;;;;;;4727556;30;20075;-43
2023/11/27 06:05:05;;;;;;;16.48;6.68;;;3.10;99.90;;;;;;4726680;30;20049;-47
2023/11/27 06:07:36;;;;;;;12.63;7.10;;;3.10;99.90;;;;;;4731229;30;20048;-48
2023/11/27 06:10:04;;;;;;;13.57;6.90;;;3.10;99.90;;;;;;4729260;30;20063;-46
2023/11/27 06:12:31;;;;;;;15.23;7.05;;;3.10;99.90;;;;;;4729626;30;20500;-50
2023/11/27 06:14:58;;;;;;;14.38;7.30;;;3.10;99.90;;;;;;4730114;30;20471;-45
2023/11/27 06:17:25;;;;;;;13.02;6.90;;;3.10;99.90;;;;;;4729468;30;20048;-46
2023/11/27 06:19:52;;;;;;;14.82;6.95;;;3.10;99.90;;;;;;4727274;30;20060;-49
2023/11/27 06:22:19;;;;;;;13.95;7.00;;;3.10;99.90;;;;;;4727745;30;20427;-44
2023/11/27 06:24:48;;;;;;;13.88;7.18;;;3.20;99.90;;;;;;4724797;30;20060;-46
2023/11/27 06:27:15;;;;;;;17.13;6.75;;;3.20;99.90;;;;;;4727644;30;20139;-49
2023/11/27 06:29:42;;;;;;;12.38;6.88;;;3.20;99.90;;;;;;4728677;30;20071;-46
2023/11/27 06:32:09;;;;;;;14.82;6.78;;;3.20;99.90;;;;;;4730037;30;20134;-48
2023/11/27 06:34:37;;;;;;;15.45;7.47;;;3.10;99.90;;;;;;4725485;30;20044;-47
2023/11/27 06:37:06;;;;;;;14.95;6.80;;;3.20;99.90;;;;;;4725724;30;20083;-46
2023/11/27 06:39:34;;;;;;;13.20;7.28;;;3.20;99.90;;;;;;4723868;30;20170;-44
2023/11/27 06:42:03;;;;;;;13.27;7.28;;;3.20;99.90;;;;;;4728859;30;20145;-43
2023/11/27 06:44:30;;;;;;;12.25;7.15;;;3.20;99.90;;;;;;4727738;30;20049;-45
2023/11/27 06:46:58;;;;;;;15.30;6.90;;;3.20;99.90;;;;;;4727957;30;20075;-40
2023/11/27 06:49:26;;;;;;;14.52;7.20;;;3.30;99.90;;;;;;4741644;24;20407;-55
2023/11/27 06:51:53;;;;;;;14.02;7.20;;;3.20;99.90;;;;;;4727279;30;20068;-55
2023/11/27 06:54:20;;;;;;;17.33;9.13;;;3.20;99.90;;;;;;4728561;30;20049;-55
2023/11/27 06:56:48;;;;;;;15.43;8.25;;;3.20;99.90;;;;;;4713482;30;20541;-51
2023/11/27 06:59:15;;;;;;;14.57;7.88;;;3.10;99.90;;;;;;4728047;30;20072;-54
2023/11/27 07:01:42;;;;;;;14.70;8.43;;;3.10;99.90;;;;;;4729319;30;20053;-56
2023/11/27 07:04:10;;;;;;;16.30;8.18;;;3.10;99.90;;;;;;4726924;30;20372;-58
2023/11/27 07:06:38;;;;;;;12.25;7.63;;;3.10;99.90;;;;;;4729017;30;20424;-58
2023/11/27 07:09:06;;;;;;;12.10;7.88;;;3.10;99.90;;;;;;4728040;30;20050;-48
2023/11/27 07:11:34;;;;;;;15.75;9.02;;;3.10;99.90;;;;;;4728463;30;20041;-51
2023/11/27 07:14:03;;;;;;;12.18;7.47;;;3.10;99.90;;;;;;4729350;30;20106;-51
2023/11/27 07:16:30;;;;;;;11.80;7.97;;;3.10;99.90;;;;;;4731273;30;20052;-48
2023/11/27 07:18:59;;;;;;;16.20;8.75;;;3.10;99.90;;;;;;4728411;30;20427;-52
2023/11/27 07:21:27;;;;;;;16.38;8.38;;;3.20;99.90;;;;;;4728575;30;20047;-57
2023/11/27 07:23:55;;;;;;;15.73;8.38;;;3.20;99.90;;;;;;4729926;30;20049;-55
2023/11/27 07:26:26;;;;;;;17.00;8.98;;;3.10;99.90;;;;;;4729013;30;20393;-50
2023/11/27 07:28:53;;;;;;;13.77;8.45;;;3.10;99.90;;;;;;4727176;30;20516;-51
2023/11/27 07:31:21;;;;;;;15.13;9.02;;;3.10;99.90;;;;;;4726761;30;20044;-54
2023/11/27 07:33:49;;;;;;;15.88;8.75;;;3.10;99.90;;;;;;4727947;30;20068;-51
2023/11/27 07:36:17;;;;;;;18.35;9.05;;;3.10;99.90;;;;;;4727930;30;20048;-53
2023/11/27 07:38:48;;;;;;;15.75;8.95;;;3.10;99.90;;;;;;4727928;30;20053;-47
2023/11/27 07:41:15;;;;;;;20.15;11.32;;;3.10;99.90;;;;;;4725393;30;20175;-49
2023/11/27 07:43:42;;;;;;;14.65;9.02;;;3.20;99.90;;;;;;4725363;30;20048;-50
2023/11/27 07:46:10;;;;;;;16.20;9.05;;;3.10;99.90;;;;;;4724297;30;20085;-57
2023/11/27 07:48:39;;;;;;;13.95;9.10;;;3.20;99.90;;;;;;4729599;30;20380;-50
2023/11/27 07:51:07;;;;;;;14.98;9.45;;;3.20;99.90;;;;;;4723733;30;20061;-51
2023/11/27 07:53:35;;;;;;;14.88;9.10;;;3.20;99.90;;;;;;4713487;30;20373;-52
2023/11/27 07:56:03;;;;;;;14.98;9.07;;;3.20;99.90;;;;;;4727887;30;20052;-51
2023/11/27 07:58:30;;;;;;;19.30;9.68;;;3.30;99.90;;;;;;4729652;30;20056;-52
2023/11/27 08:00:58;;;;;;;17.90;9.65;;;3.30;99.90;;;;;;4725728;30;20603;-52
2023/11/27 08:03:25;;;;;;;16.05;8.88;;;3.30;99.90;;;;;;4727273;30;20049;-54
2023/11/27 08:05:52;;;;;;;14.05;9.05;;;3.30;99.90;;;;;;4728016;30;20404;-50
2023/11/27 08:08:19;;;;;;;19.38;9.25;;;3.30;99.90;;;;;;4726901;30;20059;-51
2023/11/27 08:10:46;;;;;;;15.77;9.20;;;3.40;99.90;;;;;;4727969;30;20048;-54
2023/11/27 08:13:14;;;;;;;14.15;9.00;;;3.40;99.90;;;;;;4726050;30;20515;-50
2023/11/27 08:15:42;;;;;;;22.52;12.82;;;3.50;99.90;;;;;;4727227;30;20064;-53
2023/11/27 08:18:11;;;;;;;17.77;9.95;;;3.50;99.90;;;;;;4727812;30;20083;-56
2023/11/27 08:20:38;;;;;;;13.73;8.70;;;3.50;99.90;;;;;;4724608;30;20515;-56
2023/11/27 08:23:05;;;;;;;14.60;8.98;;;3.50;99.90;;;;;;4726645;30;20048;-47
2023/11/27 08:25:33;;;;;;;13.85;8.82;;;3.60;99.90;;;;;;4727954;30;20126;-54
2023/11/27 08:28:02;;;;;;;13.40;8.77;;;3.60;99.90;;;;;;4710148;30;20402;-47
2023/11/27 08:30:32;;;;;;;16.58;8.43;;;3.70;99.90;;;;;;4728909;30;20060;-52
2023/11/27 08:33:00;;;;;;;12.73;8.32;;;3.70;99.90;;;;;;4726306;30;20072;-50
2023/11/27 08:35:33;;;;;;;12.38;8.60;;;3.60;99.90;;;;;;4726885;30;20083;-54
2023/11/27 08:38:02;;;;;;;13.55;8.10;;;3.70;99.90;;;;;;4727059;30;20151;-53
2023/11/27 08:40:29;;;;;;;13.25;8.35;;;3.80;99.90;;;;;;4711070;30;20056;-50
2023/11/27 08:42:56;;;;;;;12.55;8.02;;;3.80;99.90;;;;;;4723249;30;20067;-57
2023/11/27 08:45:24;;;;;;;14.95;8.68;;;3.80;99.90;;;;;;4725721;30;20133;-52
2023/11/27 08:47:52;;;;;;;13.13;8.50;;;3.90;99.90;;;;;;4717277;30;20049;-51
2023/11/27 08:50:24;;;;;;;12.95;8.68;;;4.00;99.90;;;;;;4726890;30;20044;-46
2023/11/27 08:52:56;;;;;;;12.15;8.43;;;4.00;99.90;;;;;;4725402;30;20517;-52
2023/11/27 08:55:29;;;;;;;15.07;8.77;;;3.90;99.90;;;;;;4724714;30;20041;-56
2023/11/27 08:58:00;;;;;;;13.32;8.48;;;3.90;99.90;;;;;;4727994;30;20072;-52
2023/11/27 09:00:31;;;;;;;11.98;7.43;;;4.00;99.90;;;;;;4723399;30;20057;-48
2023/11/27 09:02:59;;;;;;;12.68;7.72;;;4.10;99.90;;;;;;4727608;30;20061;-54
2023/11/27 09:05:30;;;;;;;13.60;7.72;;;4.10;99.90;;;;;;4708828;30;20041;-57
2023/11/27 09:08:05;;;;;;;12.63;7.60;;;4.20;99.90;;;;;;4726858;30;20558;-57
2023/11/27 09:10:35;;;;;;;15.13;8.48;;;4.20;99.90;;;;;;4727902;30;20047;-51
2023/11/27 09:13:05;;;;;;;14.05;9.02;;;4.30;99.90;;;;;;4710280;30;20095;-50
2023/11/27 09:15:36;;;;;;;12.50;7.38;;;4.40;99.90;;;;;;4724390;30;20041;-53
2023/11/27 09:18:04;;;;;;;13.80;7.97;;;4.50;99.90;;;;;;4720338;30;20155;-56
2023/11/27 09:20:31;;;;;;;11.10;7.07;;;4.50;99.90;;;;;;4726710;30;20766;-57
2023/11/27 09:22:58;;;;;;;11.93;6.95;;;4.40;99.90;;;;;;4725784;30;20341;-52
2023/11/27 09:25:25;;;;;;;11.70;7.63;;;4.50;99.90;;;;;;4726700;30;20076;-49
2023/11/27 09:27:54;;;;;;;10.23;7.18;;;4.60;99.90;;;;;;4724457;30;20151;-52
2023/11/27 09:30:21;;;;;;;10.82;7.78;;;4.60;99.90;;;;;;4706995;30;20082;-51
2023/11/27 09:32:49;;;;;;;12.73;7.55;;;4.60;99.90;;;;;;4727669;30;20063;-55
2023/11/27 09:35:16;;;;;;;17.60;8.43;;;4.70;99.90;;;;;;4725084;30;20097;-56
2023/11/27 09:37:43;;;;;;;13.07;7.75;;;4.90;99.90;;;;;;4728585;30;20131;-52
2023/11/27 09:40:12;;;;;;;10.38;7.32;;;4.90;99.90;;;;;;4724287;30;20414;-54
2023/11/27 09:42:41;;;;;;;22.65;12.25;;;5.00;99.90;;;;;;4722241;30;20056;-54
2023/11/27 09:45:19;;;;;;;16.60;8.23;;;4.90;99.90;;;;;;4710659;30;20075;-57
2023/11/27 09:47:50;;;;;;;11.38;7.28;;;4.70;99.90;;;;;;4723663;30;20511;-56
2023/11/27 09:50:20;;;;;;;12.60;8.25;;;4.70;99.90;;;;;;4724580;30;20052;-51
2023/11/27 09:53:06;;;;;;;11.40;7.43;;;4.80;99.90;;;;;;4724713;30;20073;-53
2023/11/27 09:55:34;;;;;;;13.15;8.00;;;4.90;99.90;;;;;;4722062;30;20060;-50
2023/11/27 09:58:05;;;;;;;16.20;8.18;;;4.90;99.90;;;;;;4728543;30;20420;-49
2023/11/27 10:00:33;;;;;;;11.73;7.40;;;4.90;99.90;;;;;;4721932;30;20059;-57
2023/11/27 10:03:02;;;;;;;10.90;7.65;;;4.90;99.90;;;;;;4729743;30;20053;-46
2023/11/27 10:05:30;;;;;;;11.15;7.38;;;4.80;99.90;;;;;;4727775;30;20067;-52
2023/11/27 10:07:57;;;;;;;11.70;7.10;;;4.80;99.90;;;;;;4725766;30;20447;-58
2023/11/27 10:10:28;;;;;;;12.52;7.43;;;4.70;99.90;;;;;;4730612;30;20137;-57
2023/11/27 10:13:18;;;;;;;12.33;7.23;;;4.70;99.90;;;;;;4726625;30;20474;-56
2023/11/27 10:16:09;;;;;;;12.73;8.20;;;4.80;99.90;;;;;;4729703;30;20376;-54
2023/11/27 10:18:36;;;;;;;12.98;7.88;;;4.70;99.90;;;;;;4723917;30;20059;-55
2023/11/27 10:21:14;;;;;;;14.75;7.82;;;4.80;99.90;;;;;;4721683;30;20056;-56
2023/11/27 10:23:41;;;;;;;12.98;7.95;;;4.90;99.90;;;;;;4730553;30;20057;-60
2023/11/27 10:26:08;;;;;;;13.70;8.15;;;4.90;99.90;;;;;;4727872;30;20415;-51
2023/11/27 10:28:42;;;;;;;14.90;7.50;;;5.00;99.90;;;;;;4731545;30;20118;-54
2023/11/27 10:31:09;;;;;;;12.43;8.10;;;5.10;99.90;;;;;;4729480;30;20531;-55
2023/11/27 10:33:36;;;;;;;10.70;7.10;;;5.10;99.90;;;;;;4725962;30;20139;-58
2023/11/27 10:36:05;;;;;;;12.27;7.15;;;5.10;99.90;;;;;;4725414;30;20166;-56
2023/11/27 10:38:36;;;;;;;11.07;7.57;;;5.00;99.90;;;;;;4723388;30;20084;-59
2023/11/27 10:41:05;;;;;;;13.45;7.53;;;5.10;99.90;;;;;;4725200;30;20110;-55
2023/11/27 10:43:36;;;;;;;13.30;6.90;;;5.10;99.90;;;;;;4727079;30;20063;-56
2023/11/27 10:46:07;;;;;;;9.88;6.50;;;5.20;99.90;;;;;;4724138;30;20060;-55
2023/11/27 10:48:35;;;;;;;12.95;7.63;;;5.10;99.90;;;;;;4728541;30;20053;-53
2023/11/27 10:51:13;;;;;;;12.13;7.13;;;5.10;99.90;;;;;;4727640;30;20380;-57
2023/11/27 10:53:46;;;;;;;10.98;7.63;;;5.30;99.90;;;;;;4726895;30;20420;-54
2023/11/27 10:56:14;;;;;;;14.63;8.05;;;5.30;99.90;;;;;;4726572;30;20178;-55
2023/11/27 10:58:43;;;;;;;26.17;13.00;;;5.20;99.90;;;;;;4710251;30;20431;-56
2023/11/27 11:01:15;;;;;;;22.38;11.57;;;5.30;99.90;;;;;;4724883;30;20060;-51
2023/11/27 11:03:44;;;;;;;14.55;8.00;;;5.30;99.90;;;;;;4726898;30;20049;-54
2023/11/27 11:06:15;;;;;;;10.70;7.35;;;5.40;99.90;;;;;;4729201;30;20057;-52
2023/11/27 11:08:44;;;;;;;14.77;7.95;;;5.50;99.90;;;;;;4729550;30;20076;-53
2023/11/27 11:11:13;;;;;;;13.00;7.40;;;5.40;99.90;;;;;;4728390;30;20052;-55
2023/11/27 11:13:41;;;;;;;12.60;7.72;;;5.50;99.90;;;;;;4726542;30;20506;-60
2023/11/27 11:16:36;;;;;;;10.32;7.05;;;5.40;99.90;;;;;;4726800;30;20072;-53
2023/11/27 11:19:12;;;;;;;39.85;19.65;;;5.20;99.90;;;;;;4726708;30;20519;-57
2023/11/27 11:22:01;;;;;;;13.70;8.27;;;5.20;99.90;;;;;;4725834;30;20076;-56
2023/11/27 11:24:37;;;;;;;12.77;7.60;;;5.20;99.90;;;;;;4728577;30;20060;-52
2023/11/27 11:27:24;;;;;;;13.30;7.43;;;5.30;99.90;;;;;;4726210;30;20056;-52
2023/11/27 11:29:54;;;;;;;12.75;7.53;;;5.20;99.90;;;;;;4724722;30;20045;-54
2023/11/27 11:32:28;;;;;;;15.70;8.90;;;5.10;99.90;;;;;;4730831;30;20103;-57
2023/11/27 11:34:58;;;;;;;11.32;7.13;;;5.10;99.90;;;;;;4726976;30;20060;-52
2023/11/27 11:37:28;;;;;;;15.70;8.05;;;5.20;99.90;;;;;;4728560;30;20040;-57
2023/11/27 11:39:57;;;;;;;14.38;7.90;;;5.30;99.90;;;;;;4726605;30;20114;-54
2023/11/27 11:42:32;;;;;;;13.30;7.10;;;5.30;99.90;;;;;;4728434;30;20515;-57
2023/11/27 11:45:16;;;;;;;14.35;7.97;;;5.30;99.90;;;;;;4728367;30;20056;-58
2023/11/27 11:47:53;;;;;;;14.25;7.68;;;5.40;99.90;;;;;;4727046;30;20128;-55
2023/11/27 11:50:32;;;;;;;13.68;7.85;;;5.30;99.90;;;;;;4726403;30;20049;-50
2023/11/27 11:53:26;;;;;;;14.02;7.40;;;5.30;99.90;;;;;;4724498;30;20060;-56
2023/11/27 11:55:53;;;;;;;13.82;7.20;;;5.20;99.90;;;;;;4727405;30;20106;-53
2023/11/27 11:58:20;;;;;;;13.45;8.25;;;5.30;99.90;;;;;;4730734;30;20049;-56
2023/11/27 12:00:49;;;;;;;25.27;12.27;;;5.30;99.90;;;;;;4724990;30;20102;-48
2023/11/27 12:03:18;;;;;;;14.65;8.45;;;5.30;99.90;;;;;;4723664;30;20052;-52
2023/11/27 12:05:55;;;;;;;12.82;7.15;;;5.30;99.90;;;;;;4729169;30;20153;-53
2023/11/27 12:08:25;;;;;;;12.95;7.78;;;5.30;99.90;;;;;;4728400;30;20044;-55
2023/11/27 12:10:53;;;;;;;11.07;7.72;;;5.30;99.90;;;;;;4728558;30;20060;-54
2023/11/27 12:13:23;;;;;;;13.05;7.50;;;5.30;99.90;;;;;;4724781;30;20052;-62
2023/11/27 12:15:56;;;;;;;12.45;7.72;;;5.30;99.90;;;;;;4745766;30;20375;-58
2023/11/27 12:18:25;;;;;;;13.45;8.23;;;5.40;99.90;;;;;;4737539;30;20570;-51
2023/11/27 12:20:53;;;;;;;13.95;7.63;;;5.40;99.90;;;;;;4741657;30;20323;-58
2023/11/27 12:23:20;;;;;;;15.18;8.10;;;5.50;99.90;;;;;;4744854;30;20063;-55
2023/11/27 12:25:47;;;;;;;14.60;7.90;;;5.50;99.90;;;;;;4742544;30;20080;-54
2023/11/27 12:28:14;;;;;;;12.32;7.68;;;5.50;99.90;;;;;;4745593;30;20415;-51
2023/11/27 12:30:43;;;;;;;12.85;6.93;;;5.50;99.90;;;;;;4743636;30;20056;-57
2023/11/27 12:33:10;;;;;;;13.80;7.60;;;5.40;99.90;;;;;;4744602;30;20515;-57
2023/11/27 12:35:38;;;;;;;11.13;7.30;;;5.40;99.90;;;;;;4744020;30;20044;-49
2023/11/27 12:38:06;;;;;;;12.00;7.60;;;5.40;99.90;;;;;;4729747;30;20083;-55
2023/11/27 12:40:34;;;;;;;12.82;7.13;;;5.40;99.90;;;;;;4727561;30;20064;-50
2023/11/27 12:43:06;;;;;;;12.20;7.50;;;5.50;99.90;;;;;;4711883;30;20231;-49
2023/11/27 12:45:35;;;;;;;11.82;6.53;;;5.60;99.90;;;;;;4744758;30;20044;-54
2023/11/27 12:48:08;;;;;;;13.18;7.10;;;5.60;99.90;;;;;;4744388;30;20052;-51
2023/11/27 12:50:39;;;;;;;9.38;6.30;;;5.70;99.90;;;;;;4741712;30;20481;-53
2023/11/27 12:53:07;;;;;;;12.25;6.80;;;5.80;99.90;;;;;;4743907;30;20044;-47